Time;durP1;ratioP1;P1;durP2;ratioP2;P2;SDS_P1;SDS_P2;PMS_P1;PMS_P2;Temp;Humidity;BMP_temperature;BMP_pressure;BME280_temperature;BME280_humidity;BME280_pressure;Samples;Min_cycle;Max_cycle;Signal;HPM_P1;HPM_P2
2022/05/06 00:01:00;;;;;;;3.00;2.10;;;;;;;8.32;73.06;101696.20;105910;1288;76469;-85
2022/05/06 00:03:27;;;;;;;2.70;1.80;;;;;;;8.29;73.07;101702.51;105979;1288;71950;-83
2022/05/06 00:06:00;;;;;;;8.40;2.20;;;;;;;8.25;73.22;101704.44;105801;1287;73652;-87
2022/05/06 00:08:31;;;;;;;4.80;2.40;;;;;;;8.21;73.44;101706.94;105454;1287;62515;-85
2022/05/06 00:11:12;;;;;;;6.50;2.30;;;;;;;8.17;73.53;101702.67;105727;1287;62918;-84
2022/05/06 00:13:42;;;;;;;4.60;2.00;;;;;;;8.11;73.80;101699.44;105604;1287;76067;-83
2022/05/06 00:16:10;;;;;;;4.90;2.90;;;;;;;8.11;73.98;101705.10;105850;1287;72836;-84
2022/05/06 00:18:40;;;;;;;4.50;2.40;;;;;;;8.02;74.09;101700.36;105672;1287;72765;-85
2022/05/06 00:21:20;;;;;;;7.00;2.20;;;;;;;8.06;74.43;101710.28;105682;1287;62482;-85
2022/05/06 00:23:54;;;;;;;4.80;2.30;;;;;;;8.02;74.70;101707.45;105729;1287;62130;-83
2022/05/06 00:26:28;;;;;;;3.50;2.10;;;;;;;8.00;74.79;101707.63;105570;1287;75858;-85
2022/05/06 00:29:03;;;;;;;6.70;2.90;;;;;;;7.98;75.09;101711.17;105451;1288;71506;-88
2022/05/06 00:31:36;;;;;;;4.80;3.00;;;;;;;7.96;75.08;101715.36;105520;1287;73232;-87
2022/05/06 00:34:15;;;;;;;4.10;2.20;;;;;;;7.95;75.25;101718.78;105311;1287;61963;-84
2022/05/06 00:36:49;;;;;;;4.00;2.30;;;;;;;7.93;75.65;101717.94;105725;1287;61352;-86
2022/05/06 00:39:20;;;;;;;4.40;2.20;;;;;;;7.90;75.39;101717.65;105245;1289;75924;-85
2022/05/06 00:42:19;;;;;;;7.50;2.70;;;;;;;7.88;75.55;101719.27;105327;1287;72812;-84
2022/05/06 00:45:08;;;;;;;;;;;;;;;;;;;;;
2022/05/06 00:47:56;;;;;;;5.80;2.70;;;;;;;7.81;76.07;101719.73;105533;1288;62147;-84
2022/05/06 00:50:32;;;;;;;3.10;1.90;;;;;;;7.78;76.19;101720.66;105732;1287;62113;-84
2022/05/06 00:53:06;;;;;;;4.30;2.30;;;;;;;7.74;76.00;101717.75;105425;1290;75730;-85
2022/05/06 00:55:56;;;;;;;;;;;;;;;;;;;;;
2022/05/06 00:58:48;;;;;;;7.20;2.60;;;;;;;7.70;76.84;101712.34;105496;1287;74029;-83
2022/05/06 01:01:34;;;;;;;;;;;;;;;;;;;;;
2022/05/06 01:04:07;;;;;;;3.30;2.10;;;;;;;7.66;77.76;101710.41;105578;1287;61249;-84
2022/05/06 01:06:39;;;;;;;4.00;2.30;;;;;;;7.65;77.70;101717.54;105460;1287;76533;-84
2022/05/06 01:09:06;;;;;;;6.90;2.20;;;;;;;7.63;77.70;101714.90;105371;1287;72534;-85
2022/05/06 01:11:45;;;;;;;5.30;2.60;;;;;;;7.60;77.68;101717.43;105309;1288;73262;-85
2022/05/06 01:14:41;;;;;;;6.20;2.40;;;;;;;7.56;77.63;101714.21;105646;1287;62103;-86
2022/05/06 01:17:17;;;;;;;;;;;;;;;7.52;77.85;101716.48;105678;1287;61897;-85
2022/05/06 01:19:57;;;;;;;3.30;1.80;;;;;;;7.46;78.18;101717.00;105524;1287;74223;-84
2022/05/06 01:22:49;;;;;;;3.90;2.40;;;;;;;7.41;78.62;101715.65;105586;1287;71579;-84
2022/05/06 01:25:43;;;;;;;3.20;1.90;;;;;;;7.36;78.85;101717.98;105509;1288;72524;-85
2022/05/06 01:28:22;;;;;;;7.00;2.70;;;;;;;7.31;79.03;101714.56;105426;1288;61532;-84
2022/05/06 01:31:15;;;;;;;6.20;2.30;;;;;;;7.27;79.20;101717.52;106829;1287;61446;-89
2022/05/06 01:34:01;;;;;;;3.70;2.00;;;;;;;7.23;79.40;101716.77;106720;1289;75915;-86
2022/05/06 01:36:49;;;;;;;7.90;2.60;;;;;;;7.19;79.31;101718.21;106693;1287;72099;-85
2022/05/06 01:39:52;;;;;;;3.30;2.20;;;;;;;7.14;79.08;101719.80;106186;1287;74958;-85
2022/05/06 01:42:38;;;;;;;6.10;2.50;;;;;;;7.09;79.08;101724.29;105479;1287;62405;-87
2022/05/06 01:45:16;;;;;;;6.00;2.20;;;;;;;7.06;79.41;101724.95;105522;1286;62045;-86
2022/05/06 01:48:16;;;;;;;5.00;2.10;;;;;;;7.01;79.30;101725.88;105582;1287;76954;-85
2022/05/06 01:51:10;;;;;;;5.20;2.40;;;;;;;6.96;80.03;101724.66;105409;1288;71425;-84
2022/05/06 01:54:10;;;;;;;6.10;2.30;;;;;;;6.93;80.21;101726.14;105422;1290;72433;-85
2022/05/06 01:57:06;;;;;;;4.50;2.70;;;;;;;6.89;80.32;101727.55;105589;1287;62742;-85
2022/05/06 01:59:55;;;;;;;4.00;2.40;;;;;;;6.83;80.58;101723.63;105403;1287;62114;-85
2022/05/06 02:02:31;;;;;;;4.60;2.80;;;;;;;6.79;81.26;101726.39;105486;1287;76754;-83
2022/05/06 02:05:33;;;;;;;;;;;;;;;;;;;;;
2022/05/06 02:08:22;;;;;;;3.20;2.10;;;;;;;6.73;81.77;101723.89;105843;1287;74257;-85
2022/05/06 02:11:09;;;;;;;;;;;;;;;;;;;;;
2022/05/06 02:13:55;;;;;;;5.90;2.20;;;;;;;6.69;81.94;101725.10;105484;1290;62995;-85
2022/05/06 02:16:55;;;;;;;4.30;2.10;;;;;;;6.67;81.87;101735.10;105357;1287;76983;-85
2022/05/06 02:19:42;;;;;;;4.00;2.30;;;;;;;6.65;81.89;101726.86;105258;1290;72027;-86
2022/05/06 02:22:51;;;;;;;5.60;3.00;;;;;;;6.64;82.52;101728.85;105424;1287;73737;-85
2022/05/06 02:25:39;;;;;;;5.30;2.50;;;;;;;6.65;82.73;101727.21;105467;1287;62108;-85
2022/05/06 02:28:23;;;;;;;3.90;2.40;;;;;;;6.62;83.00;101730.95;105498;1287;61966;-84
2022/05/06 02:34:17;;;;;;;;;;;;;;;;;;;;;
2022/05/06 02:37:08;;;;;;;4.30;2.60;;;;;;;6.57;82.97;101730.46;105802;1287;75577;-84
2022/05/06 02:39:40;;;;;;;4.50;2.90;;;;;;;6.57;82.89;101735.20;105462;1287;62816;-85
2022/05/06 02:42:11;;;;;;;6.10;2.60;;;;;;;6.56;83.02;101734.77;105327;1288;61792;-84
2022/05/06 02:44:55;;;;;;;10.10;2.70;;;;;;;6.54;82.96;101731.59;105481;1288;75850;-87
2022/05/06 02:47:35;;;;;;;4.80;2.70;;;;;;;6.52;83.34;101729.63;105384;1288;72305;-84
2022/05/06 02:50:41;;;;;;;4.20;2.80;;;;;;;6.51;83.50;101731.83;105606;1287;73456;-86
2022/05/06 02:53:13;;;;;;;4.90;2.00;;;;;;;6.49;83.64;101728.59;105455;1287;62099;-84
2022/05/06 02:55:53;;;;;;;;;;;;;;;;;;;;;
2022/05/06 02:58:32;;;;;;;4.40;2.20;;;;;;;6.49;83.65;101727.79;105779;1287;76594;-85
2022/05/06 03:01:11;;;;;;;4.20;2.60;;;;;;;6.48;83.39;101727.70;105563;1287;72988;-85
2022/05/06 03:03:44;;;;;;;5.50;2.80;;;;;;;6.48;83.57;101727.70;105703;1287;74345;-85
2022/05/06 03:06:30;;;;;;;3.90;2.70;;;;;;;6.45;83.43;101718.23;105976;1288;62113;-83
2022/05/06 03:09:06;;;;;;;6.00;2.40;;;;;;;6.47;83.81;101722.27;106329;1287;62088;-84
2022/05/06 03:11:57;;;;;;;3.30;2.00;;;;;;;6.46;83.79;101716.80;105843;1288;76606;-84
2022/05/06 03:14:40;;;;;;;4.20;2.40;;;;;;;6.47;83.77;101717.17;106018;1287;71873;-85
2022/05/06 03:17:09;;;;;;;7.10;2.50;;;;;;;6.48;83.87;101717.62;105935;1287;73216;-86
2022/05/06 03:19:39;;;;;;;6.90;3.20;;;;;;;6.49;83.77;101717.89;105931;1287;62181;-85
2022/05/06 03:22:24;;;;;;;;;;;;;;;;;;;;;
2022/05/06 03:25:22;;;;;;;;;;;;;;;;;;;;;
2022/05/06 03:28:18;;;;;;;3.70;2.30;;;;;;;6.52;83.95;101707.67;105499;1288;72875;-86
2022/05/06 03:31:26;;;;;;;4.90;3.00;;;;;;;6.55;83.78;101718.70;104875;1294;72948;-85
2022/05/06 03:34:30;;;;;;;;;;;;;;;;;;;;;
2022/05/06 03:37:27;;;;;;;;;;;;;;;;;;;;;
2022/05/06 03:40:00;;;;;;;7.70;2.90;;;;;;;6.46;84.02;101730.95;104941;1294;75802;-85
2022/05/06 03:43:01;;;;;;;5.20;2.70;;;;;;;6.43;84.37;101725.42;105110;1293;71328;-84
2022/05/06 03:45:39;;;;;;;;;;;;;;;;;;;;;
2022/05/06 03:48:29;;;;;;;4.70;3.00;;;;;;;6.35;84.39;101721.73;105144;1291;62302;-85
2022/05/06 03:51:42;;;;;;;7.70;2.90;;;;;;;6.37;84.52;101730.88;104972;1293;62247;-86
2022/05/06 03:54:58;;;;;;;5.80;2.70;;;;;;;6.34;84.45;101726.68;105585;1291;75846;-86
2022/05/06 03:57:42;;;;;;;5.70;2.80;;;;;;;6.32;84.14;101729.25;106519;1291;71287;-83
2022/05/06 04:00:56;;;;;;;4.90;2.70;;;;;;;6.32;84.19;101725.98;106770;1291;71925;-84
2022/05/06 04:03:57;;;;;;;5.60;3.10;;;;;;;6.30;84.49;101725.58;106709;1290;62934;-87
2022/05/06 04:06:47;;;;;;;6.30;3.20;;;;;;;6.32;84.76;101727.85;106403;1292;62192;-86
2022/05/06 04:09:42;;;;;;;5.30;2.90;;;;;;;6.33;84.79;101729.22;106842;1287;76636;-85
2022/05/06 04:12:22;;;;;;;;;;;;;;;6.36;84.89;101731.30;106997;1286;70859;-85
2022/05/06 04:15:12;;;;;;;;;;;;;;;;;;;;;
2022/05/06 04:18:07;;;;;;;;;;;;;;;;;;;;;
2022/05/06 04:23:29;;;;;;;6.70;2.80;;;;;;;6.44;84.96;101740.44;106241;1287;77329;-82
2022/05/06 04:26:06;;;;;;;5.90;2.90;;;;;;;6.48;85.05;101741.56;105899;1287;71515;-82
2022/05/06 04:28:34;;;;;;;10.20;2.60;;;;;;;6.51;84.88;101736.70;105848;1287;72748;-80
2022/05/06 04:31:01;;;;;;;4.90;3.00;;;;;;;6.58;84.74;101742.39;105476;1287;61586;-81
2022/05/06 04:33:32;;;;;;;7.80;4.40;;;;;;;6.62;84.63;101742.90;105608;1288;62136;-83
2022/05/06 04:36:07;;;;;;;7.00;3.50;;;;;;;6.63;84.13;101744.02;105573;1288;75723;-81
2022/05/06 04:38:48;;;;;;;;;;;;;;;;;;;;;
2022/05/06 04:41:15;;;;;;;4.10;2.80;;;;;;;6.70;84.20;101748.77;105806;1287;74765;-86
2022/05/06 04:43:45;;;;;;;6.10;3.10;;;;;;;6.74;84.19;101750.20;105686;1287;61074;-83
2022/05/06 04:46:22;;;;;;;;;;;;;;;;;;;;;
2022/05/06 04:49:01;;;;;;;8.30;3.90;;;;;;;6.80;84.39;101751.83;106281;1287;79160;-83
2022/05/06 04:51:51;;;;;;;;;;;;;;;;;;;;;
2022/05/06 04:54:28;;;;;;;5.50;3.30;;;;;;;6.82;84.23;101756.77;106700;1286;72381;-83
2022/05/06 04:57:11;;;;;;;5.50;2.70;;;;;;;6.79;84.47;101760.18;106804;1286;62343;-84
2022/05/06 04:59:49;;;;;;;3.60;2.60;;;;;;;6.78;84.50;101764.44;106841;1287;61900;-82
2022/05/06 05:02:18;;;;;;;5.70;2.90;;;;;;;6.81;84.72;101764.55;105979;1287;77008;-84
2022/05/06 05:04:46;;;;;;;9.00;3.00;;;;;;;6.88;85.35;101767.88;106444;1287;70654;-83
2022/05/06 05:07:19;;;;;;;6.70;2.90;;;;;;;6.93;85.22;101767.14;105727;1287;73151;-83
2022/05/06 05:09:46;;;;;;;4.90;3.30;;;;;;;6.97;85.13;101767.31;105744;1287;62490;-85
2022/05/06 05:12:24;;;;;;;7.00;3.30;;;;;;;7.02;84.97;101766.91;105739;1287;61309;-84
2022/05/06 05:14:59;;;;;;;6.20;3.50;;;;;;;7.11;84.89;101765.88;105989;1287;75887;-84
2022/05/06 05:17:38;;;;;;;9.40;3.20;;;;;;;7.22;85.01;101770.88;107170;1287;71688;-85
2022/05/06 05:20:19;;;;;;;6.30;3.50;;;;;;;7.37;84.64;101771.61;107127;1287;71802;-84
2022/05/06 05:23:06;;;;;;;6.90;3.90;;;;;;;7.51;84.75;101769.93;106500;1288;61920;-84
2022/05/06 05:26:07;;;;;;;8.80;3.70;;;;;;;7.63;84.06;101771.91;105796;1287;62120;-84
2022/05/06 05:29:42;;;;;;;9.80;3.50;;;;;;;7.74;83.64;101767.95;105698;1287;77158;-87
2022/05/06 05:32:14;;;;;;;8.70;3.60;;;;;;;7.93;83.69;101768.84;105744;1287;72509;-84
2022/05/06 05:34:46;;;;;;;9.80;3.40;;;;;;;8.10;83.35;101770.86;105773;1285;74158;-82
2022/05/06 05:37:25;;;;;;;7.30;3.50;;;;;;;8.25;82.91;101774.38;105825;1287;61992;-84
2022/05/06 05:40:10;;;;;;;8.30;4.60;;;;;;;8.41;82.47;101775.48;105718;1286;61781;-82
2022/05/06 05:42:44;;;;;;;6.00;3.80;;;;;;;8.57;82.08;101772.48;105506;1287;75971;-82
2022/05/06 05:51:16;;;;;;;5.60;4.00;;;;;;;9.10;81.03;101780.00;105473;1287;62303;-83
2022/05/06 05:53:43;;;;;;;7.30;3.80;;;;;;;9.29;80.45;101785.17;105644;1288;61938;-82
2022/05/06 05:56:13;;;;;;;8.40;3.90;;;;;;;9.44;80.27;101786.10;105762;1287;76875;-82
2022/05/06 05:58:50;;;;;;;12.80;4.90;;;;;;;9.58;79.86;101787.76;105602;1287;71956;-85
2022/05/06 06:01:17;;;;;;;8.90;3.80;;;;;;;9.73;79.50;101785.34;105393;1287;73229;-81
2022/05/06 06:03:48;;;;;;;7.80;4.90;;;;;;;9.87;79.01;101783.31;105254;1287;62490;-83
2022/05/06 06:06:15;;;;;;;9.20;4.90;;;;;;;10.02;78.74;101785.61;105371;1288;60585;-82
2022/05/06 06:08:43;;;;;;;12.50;7.20;;;;;;;10.16;78.23;101788.99;105391;1287;75729;-81
2022/05/06 06:11:13;;;;;;;11.00;6.00;;;;;;;10.33;78.13;101790.36;105312;1287;71366;-79
2022/05/06 06:13:39;;;;;;;6.70;4.90;;;;;;;10.50;77.68;101790.80;105462;1287;73180;-81
2022/05/06 06:16:06;;;;;;;10.20;4.50;;;;;;;10.65;77.03;101789.91;105133;1287;62196;-79
2022/05/06 06:18:33;;;;;;;10.50;4.50;;;;;;;10.80;77.02;101787.73;105466;1287;61980;-79
2022/05/06 06:21:00;;;;;;;12.20;6.20;;;;;;;10.98;76.82;101788.32;105489;1287;76778;-83
2022/05/06 06:23:30;;;;;;;18.50;6.90;;;;;;;11.14;76.35;101791.20;105491;1287;62203;-83
2022/05/06 06:25:58;;;;;;;8.30;4.50;;;;;;;11.27;75.97;101788.27;105424;1287;72947;-80
2022/05/06 06:28:24;;;;;;;10.10;4.60;;;;;;;11.40;75.90;101786.56;105509;1287;63437;-80
2022/05/06 06:30:51;;;;;;;8.40;4.50;;;;;;;11.54;75.30;101790.20;105107;1288;63611;-81
2022/05/06 06:33:18;;;;;;;9.60;5.50;;;;;;;11.65;75.03;101790.73;105224;1288;75657;-83
2022/05/06 06:35:45;;;;;;;8.30;4.40;;;;;;;11.75;74.67;101788.73;105575;1287;71479;-81
2022/05/06 06:38:11;;;;;;;8.80;4.70;;;;;;;11.87;73.93;101791.28;105354;1287;73371;-81
2022/05/06 06:40:38;;;;;;;6.20;4.30;;;;;;;11.99;73.60;101789.89;105155;1287;62042;-83
2022/05/06 06:43:06;;;;;;;11.40;5.20;;;;;;;12.16;73.44;101793.98;105046;1287;62224;-80
2022/05/06 06:45:34;;;;;;;8.30;4.40;;;;;;;12.34;72.42;101791.96;105264;1287;74745;-83
2022/05/06 06:48:01;;;;;;;7.50;4.00;;;;;;;12.50;72.01;101790.48;105307;1287;72615;-81
2022/05/06 06:50:28;;;;;;;7.10;3.70;;;;;;;12.65;70.99;101791.16;105232;1288;73288;-82
2022/05/06 06:52:59;;;;;;;8.00;5.00;;;;;;;12.76;70.63;101789.38;105184;1288;63329;-82
2022/05/06 06:55:28;;;;;;;10.60;5.70;;;;;;;12.89;70.42;101796.86;105442;1287;61988;-83
2022/05/06 06:57:55;;;;;;;8.90;4.50;;;;;;;13.04;70.20;101800.03;105161;1287;76968;-79
2022/05/06 07:00:22;;;;;;;7.30;4.70;;;;;;;13.22;69.83;101804.75;105332;1287;72426;-81
2022/05/06 07:02:49;;;;;;;8.20;5.00;;;;;;;13.35;68.69;101804.91;105433;1287;72837;-81
2022/05/06 07:05:17;;;;;;;8.70;4.60;;;;;;;13.51;68.39;101802.19;105183;1288;63911;-81
2022/05/06 07:13:41;;;;;;;;;;;;;;;14.13;66.97;101806.49;105269;1287;71320;-80
2022/05/06 07:16:08;;;;;;;;;;;;;;;14.28;65.94;101808.45;105041;1288;73123;-80
2022/05/06 07:18:35;;;;;;;;;;;;;;;14.33;64.86;101810.52;105060;1288;62017;-82
2022/05/06 07:21:01;;;;;;;;;;;;;;;14.39;65.37;101809.52;105227;1286;62090;-81
2022/05/06 07:23:27;;;;;;;;;;;;;;;14.48;65.41;101813.04;105269;1286;62032;-79
2022/05/06 07:25:54;;;;;;;;;;;;;;;14.59;64.47;101814.02;105284;1288;62873;-80
2022/05/06 07:28:20;;;;;;;;;;;;;;;14.64;63.01;101813.42;105271;1287;62111;-80
2022/05/06 07:30:47;;;;;;;;;;;;;;;14.74;62.77;101816.76;104891;1288;62116;-80
2022/05/06 07:33:13;;;;;;;;;;;;;;;14.85;62.57;101814.97;105153;1287;60303;-82
2022/05/06 07:35:43;;;;;;;;;;;;;;;14.94;62.67;101812.38;105283;1287;62276;-81
2022/05/06 07:38:09;;;;;;;;;;;;;;;15.08;62.42;101810.41;105188;1287;71583;-81
2022/05/06 07:40:38;;;;;;;;;;;;;;;15.18;61.70;101811.35;105214;1287;62003;-81
2022/05/06 07:43:13;;;;;;;;;;;;;;;15.29;61.25;101814.67;105226;1287;62243;-80
2022/05/06 07:45:40;;;;;;;;;;;;;;;15.39;61.17;101814.23;105399;1287;60267;-81
2022/05/06 07:48:13;;;;;;;;;;;;;;;15.51;61.36;101813.77;105155;1287;76493;-85
2022/05/06 07:50:45;;;;;;;;;;;;;;;15.63;60.85;101809.16;105352;1287;71577;-80
2022/05/06 07:53:15;;;;;;;;;;;;;;;15.75;60.02;101806.93;105148;1287;72994;-81
2022/05/06 07:55:50;;;;;;;;;;;;;;;15.88;60.09;101809.83;104881;1287;62195;-81
2022/05/06 07:58:27;;;;;;;;;;;;;;;15.98;58.91;101809.02;104925;1285;61766;-81
2022/05/06 08:00:54;;;;;;;;;;;;;;;16.09;58.57;101810.53;104981;1288;75768;-81
2022/05/06 08:06:20;;;;;;;;;;;;;;;16.36;56.16;101808.16;105446;1287;72167;-83
2022/05/06 08:08:46;;;;;;;;;;;;;;;16.47;55.90;101805.70;104965;1288;62132;-86
2022/05/06 08:11:13;;;;;;;;;;;;;;;16.57;55.04;101810.56;105033;1287;61000;-82
2022/05/06 08:13:39;;;;;;;;;;;;;;;16.64;52.42;101805.09;105230;1287;75839;-83
2022/05/06 08:16:06;;;;;;;;;;;;;;;16.65;52.23;101800.89;105412;1287;62173;-83
2022/05/06 08:18:33;;;;;;;;;;;;;;;16.69;52.18;101800.04;105306;1287;61993;-84
2022/05/06 08:20:59;;;;;;;;;;;;;;;16.77;52.02;101802.65;105253;1287;62323;-85
2022/05/06 08:23:26;;;;;;;;;;;;;;;16.88;50.94;101804.16;105361;1287;61981;-85
2022/05/06 08:25:53;;;;;;;;;;;;;;;16.99;50.78;101800.30;105479;1287;61936;-83
2022/05/06 08:28:25;;;;;;;;;;;;;;;17.07;49.89;101801.39;105169;1288;71570;-83
2022/05/06 08:30:54;;;;;;;;;;;;;;;17.12;50.09;101801.77;105094;1288;72952;-83
2022/05/06 08:33:21;;;;;;;;;;;;;;;17.24;50.59;101801.34;105165;1287;62159;-84
2022/05/06 08:35:48;;;;;;;;;;;;;;;17.37;50.74;101796.74;105500;1287;62089;-83
2022/05/06 08:38:16;;;;;;;;;;;;;;;17.49;50.07;101797.27;105217;1287;75761;-82
2022/05/06 08:40:43;;;;;;;;;;;;;;;17.61;50.22;101796.63;105482;1287;71378;-81
2022/05/06 08:43:09;;;;;;;;;;;;;;;17.75;49.55;101793.67;105463;1288;73060;-83
2022/05/06 08:51:12;;;;;;;5.30;2.40;;;;;;;18.00;47.81;101793.40;105504;1287;77572;-83
2022/05/06 08:53:40;;;;;;;3.80;2.30;;;;;;;18.14;46.64;101791.85;105105;1287;72871;-82
2022/05/06 08:56:07;;;;;;;4.60;2.30;;;;;;;18.19;45.65;101790.34;105213;1286;73856;-84
2022/05/06 08:58:37;;;;;;;6.10;2.70;;;;;;;18.23;45.87;101789.45;105204;1287;62105;-83
2022/05/06 09:01:12;;;;;;;5.50;2.80;;;;;;;18.29;45.89;101785.68;105359;1287;61943;-80
2022/05/06 09:03:44;;;;;;;4.10;2.40;;;;;;;18.29;44.73;101784.77;105226;1287;76001;-81
2022/05/06 09:06:20;;;;;;;4.70;2.90;;;;;;;18.31;45.42;101782.14;105377;1286;71549;-80
2022/05/06 09:08:49;;;;;;;3.40;2.40;;;;;;;18.42;45.23;101786.14;105018;1287;72917;-80
2022/05/06 09:12:40;;;;;;;4.30;2.00;;;;;;;18.46;44.75;101785.09;105387;1286;62357;-81
2022/05/06 09:14:13;;;;;;;8.30;4.20;;;;;;;18.52;44.58;101785.66;105311;1287;62094;-80
2022/05/06 09:16:40;;;;;;;5.50;2.40;;;;;;;18.65;44.84;101785.57;105394;1287;76963;-81
2022/05/06 09:19:28;;;;;;;3.20;2.10;;;;;;;18.76;43.78;101779.98;105279;1286;71583;-81
2022/05/06 09:22:02;;;;;;;4.90;2.50;;;;;;;18.82;43.24;101780.40;104971;1288;73781;-84
2022/05/06 09:24:31;;;;;;;3.90;2.20;;;;;;;18.93;43.89;101778.94;105059;1288;62157;-84
2022/05/06 09:26:59;;;;;;;5.50;2.60;;;;;;;19.04;43.25;101776.52;106453;1286;60704;-82
2022/05/06 09:29:49;;;;;;;4.50;2.50;;;;;;;19.11;41.61;101778.63;105213;1287;76433;-84
2022/05/06 09:32:25;;;;;;;3.00;1.80;;;;;;;19.16;40.73;101779.20;105885;1287;71395;-81
2022/05/06 09:35:07;;;;;;;8.00;3.90;;;;;;;19.10;39.60;101781.15;105202;1288;74040;-80
2022/05/06 09:37:48;;;;;;;19.00;11.30;;;;;;;19.11;40.58;101779.41;105352;1287;62043;-82
2022/05/06 09:40:20;;;;;;;5.00;2.60;;;;;;;19.30;40.85;101779.02;104686;1287;62266;-81
2022/05/06 09:42:54;;;;;;;4.70;2.10;;;;;;;19.41;39.38;101780.05;104802;1288;421581;-83
2022/05/06 09:45:42;;;;;;;4.90;2.10;;;;;;;19.46;39.83;101776.70;105361;1287;72496;-83
2022/05/06 09:48:13;;;;;;;11.50;6.00;;;;;;;19.65;39.84;101770.02;105198;1288;75794;-86
2022/05/06 09:50:45;;;;;;;2.70;1.60;;;;;;;19.85;39.76;101771.64;104934;1287;61975;-84
2022/05/06 09:53:25;;;;;;;6.00;2.60;;;;;;;20.03;38.77;101767.81;105714;1287;62115;-85
2022/05/06 09:55:54;;;;;;;5.80;2.70;;;;;;;20.13;38.52;101768.46;105874;1287;75813;-84
2022/05/06 09:58:26;;;;;;;8.20;3.00;;;;;;;20.20;38.31;101762.99;105375;1287;71437;-85
2022/05/06 10:00:52;;;;;;;4.70;2.90;;;;;;;20.21;37.61;101762.38;105133;1288;72255;-84
2022/05/06 10:03:20;;;;;;;2.90;1.70;;;;;;;20.18;38.04;101759.58;105595;1287;62073;-81
2022/05/06 10:05:46;;;;;;;3.80;2.20;;;;;;;20.25;38.53;101756.14;105325;1287;60752;-82
2022/05/06 10:08:17;;;;;;;5.50;2.20;;;;;;;20.33;37.33;101752.67;105424;1287;78087;-82
2022/05/06 10:11:14;;;;;;;3.40;1.90;;;;;;;20.46;37.57;101751.11;105326;1287;71091;-84
2022/05/06 10:13:47;;;;;;;6.10;2.50;;;;;;;20.59;36.54;101758.61;105268;1288;73864;-82
2022/05/06 10:16:18;;;;;;;4.80;2.80;;;;;;;20.41;35.47;101755.62;105236;1287;62134;-81
2022/05/06 10:18:46;;;;;;;4.50;2.00;;;;;;;20.39;36.12;101752.81;105342;1287;62072;-81
2022/05/06 10:21:16;;;;;;;6.30;2.40;;;;;;;20.59;36.52;101750.98;105392;1287;76758;-86
2022/05/06 10:23:47;;;;;;;4.70;2.20;;;;;;;20.77;35.78;101746.26;105302;1287;71344;-85
2022/05/06 10:26:47;;;;;;;3.70;1.90;;;;;;;21.01;35.77;101742.96;105313;1286;74181;-83
2022/05/06 10:32:29;;;;;;;4.40;2.30;;;;;;;21.25;35.15;101740.45;105224;1287;61592;-82
2022/05/06 10:34:58;;;;;;;3.80;1.70;;;;;;;21.47;34.46;101733.92;105143;1287;75714;-81
2022/05/06 10:37:36;;;;;;;5.30;1.90;;;;;;;21.58;34.35;101731.41;105201;1287;72630;-81
2022/05/06 10:40:24;;;;;;;4.60;2.20;;;;;;;21.51;34.50;101736.38;105172;1287;73192;-82
2022/05/06 10:42:54;;;;;;;6.50;2.40;;;;;;;21.37;34.74;101735.49;105297;1287;62134;-82
2022/05/06 10:45:23;;;;;;;3.80;2.40;;;;;;;21.41;34.70;101729.55;105269;1287;62072;-82
2022/05/06 10:47:53;;;;;;;3.90;2.50;;;;;;;21.35;34.16;101728.05;105349;1286;74710;-83
2022/05/06 10:50:23;;;;;;;3.30;2.30;;;;;;;21.27;33.93;101725.71;105281;1287;71583;-81
2022/05/06 10:52:56;;;;;;;3.90;1.60;;;;;;;21.23;34.99;101718.30;105813;1288;74082;-81
2022/05/06 10:55:24;;;;;;;3.90;1.90;;;;;;;21.29;35.30;101719.14;104989;1288;61915;-81
2022/05/06 10:57:52;;;;;;;5.20;1.70;;;;;;;21.36;34.57;101721.52;106530;1287;60192;-85
2022/05/06 11:00:20;;;;;;;3.80;1.30;;;;;;;21.41;34.62;101714.02;105279;1286;76789;-81
2022/05/06 11:02:48;;;;;;;3.40;1.70;;;;;;;21.41;34.37;101714.89;105049;1287;72716;-83
2022/05/06 11:05:17;;;;;;;10.50;6.00;;;;;;;21.46;34.82;101714.25;105109;1288;73703;-83
2022/05/06 11:07:45;;;;;;;3.10;1.80;;;;;;;21.54;34.52;101716.77;104869;1288;62177;-82
2022/05/06 11:10:11;;;;;;;3.70;1.70;;;;;;;21.52;34.35;101715.86;105196;1288;60911;-83
2022/05/06 11:12:45;;;;;;;3.00;1.60;;;;;;;21.52;34.06;101713.91;105348;1287;60428;-83
2022/05/06 11:15:14;;;;;;;2.60;1.20;;;;;;;21.67;33.68;101714.29;105025;1288;72399;-83
2022/05/06 11:17:43;;;;;;;4.50;1.80;;;;;;;21.89;33.72;101708.73;105090;1287;72690;-83
2022/05/06 11:20:19;;;;;;;2.60;1.60;;;;;;;22.13;32.39;101711.02;105829;1287;62265;-85
2022/05/06 11:22:57;;;;;;;2.20;1.50;;;;;;;22.31;32.55;101702.38;105088;1287;62210;-85
2022/05/06 11:25:29;;;;;;;4.40;1.90;;;;;;;22.50;31.35;101705.73;105443;1287;75586;-83
2022/05/06 11:27:58;;;;;;;3.00;1.60;;;;;;;22.60;31.45;101704.27;105109;1288;71395;-83
2022/05/06 11:30:27;;;;;;;4.60;2.40;;;;;;;22.75;31.56;101704.83;105606;1287;73932;-83
2022/05/06 11:33:02;;;;;;;2.20;1.30;;;;;;;22.69;31.57;101697.92;105444;1288;62096;-81
2022/05/06 11:35:33;;;;;;;4.00;1.50;;;;;;;22.47;31.49;101702.42;105449;1288;62192;-81
2022/05/06 11:38:02;;;;;;;4.00;1.70;;;;;;;22.06;32.11;101700.14;105364;1287;75818;-82
2022/05/06 11:40:34;;;;;;;2.50;1.20;;;;;;;21.84;32.80;101691.52;105384;1286;71543;-82
2022/05/06 11:43:20;;;;;;;3.90;1.80;;;;;;;21.68;33.10;101693.73;105325;1287;74235;-87
2022/05/06 11:48:43;;;;;;;3.10;1.60;;;;;;;21.61;33.19;101690.20;105110;1288;62257;-83
2022/05/06 11:51:21;;;;;;;3.10;1.50;;;;;;;21.72;33.28;101687.72;105073;1288;77810;-81
2022/05/06 11:53:49;;;;;;;4.70;2.10;;;;;;;22.08;32.94;101686.40;105253;1288;72390;-86
2022/05/06 11:56:24;;;;;;;2.60;1.60;;;;;;;22.37;32.39;101684.09;105185;1288;74043;-82
2022/05/06 11:58:55;;;;;;;2.70;1.70;;;;;;;22.64;32.14;101676.48;105220;1287;62237;-81
2022/05/06 12:01:25;;;;;;;3.10;1.80;;;;;;;23.07;31.37;101670.83;105188;1286;61999;-83
2022/05/06 12:03:52;;;;;;;3.10;1.70;;;;;;;23.66;30.94;101670.27;105236;1287;76917;-84
2022/05/06 12:06:32;;;;;;;4.00;1.30;;;;;;;24.24;30.59;101665.15;105241;1286;72956;-82
2022/05/06 12:09:16;;;;;;;4.40;1.80;;;;;;;24.76;30.07;101663.71;105268;1287;74324;-81
2022/05/06 12:11:44;;;;;;;5.60;1.80;;;;;;;24.64;28.43;101668.22;105224;1287;62099;-82
2022/05/06 12:14:17;;;;;;;2.50;1.40;;;;;;;24.34;28.79;101659.32;105299;1287;62105;-81
2022/05/06 12:16:59;;;;;;;5.80;1.80;;;;;;;23.94;29.10;101663.48;105007;1288;75838;-80
2022/05/06 12:19:38;;;;;;;4.60;1.40;;;;;;;23.47;29.91;101660.75;105320;1286;73012;-84
2022/05/06 12:22:09;;;;;;;4.20;1.80;;;;;;;23.17;30.53;101661.83;105121;1288;73951;-81
2022/05/06 12:24:47;;;;;;;2.60;1.50;;;;;;;22.99;30.65;101663.30;105104;1288;62227;-85
2022/05/06 12:27:33;;;;;;;4.20;1.40;;;;;;;22.76;30.91;101661.57;105212;1288;62081;-83
2022/05/06 12:30:02;;;;;;;4.30;2.20;;;;;;;22.64;31.41;101659.00;106511;1287;76274;-84
2022/05/06 12:32:29;;;;;;;5.10;1.80;;;;;;;22.67;31.67;101659.19;106648;1286;71522;-81
2022/05/06 12:35:10;;;;;;;2.60;1.50;;;;;;;22.75;31.78;101655.92;106712;1287;73295;-82
2022/05/06 12:37:53;;;;;;;3.90;1.60;;;;;;;22.78;31.27;101656.70;107094;1287;60895;-81
2022/05/06 12:40:19;;;;;;;4.40;1.70;;;;;;;23.05;30.85;101654.79;106888;1287;60482;-79
2022/05/06 12:43:09;;;;;;;4.30;1.50;;;;;;;23.13;30.72;101649.13;105857;1287;76819;-80
2022/05/06 12:45:37;;;;;;;3.90;1.30;;;;;;;23.12;30.57;101645.90;105282;1287;72799;-83
2022/05/06 12:50:49;;;;;;;2.60;1.10;;;;;;;24.62;29.40;101640.10;105271;1287;62259;-82
2022/05/06 12:53:16;;;;;;;2.30;1.30;;;;;;;25.65;27.76;101632.51;105414;1286;63042;-81
2022/05/06 12:55:43;;;;;;;2.10;1.20;;;;;;;27.29;27.37;101632.50;105205;1287;62199;-82
2022/05/06 12:58:10;;;;;;;2.50;1.40;;;;;;;28.92;24.40;101627.36;105769;1288;71272;-82
2022/05/06 13:00:39;;;;;;;1.70;1.20;;;;;;;30.33;23.30;101622.63;105357;1287;74020;-83
2022/05/06 13:03:06;;;;;;;4.40;1.40;;;;;;;30.25;21.33;101622.80;106133;1287;62012;-83
2022/05/06 13:05:34;;;;;;;4.30;1.30;;;;;;;30.13;21.90;101621.43;105463;1287;62122;-82
2022/05/06 13:08:06;;;;;;;2.80;1.20;;;;;;;30.59;21.55;101621.33;104851;1287;76740;-85
2022/05/06 13:10:33;;;;;;;2.80;1.10;;;;;;;29.83;21.23;101622.39;105552;1287;71480;-84